sensor_id;sensor_type;location;lat;lon;timestamp;P1;durP1;ratioP1;P2;durP2;ratioP2
76094;SDS011;64821;13.710;100.604;2023-08-17T20:01:32;6.03;;;1.98;;
76094;SDS011;64821;13.710;100.604;2023-08-17T20:02:36;6.38;;;2.00;;
76094;SDS011;64821;13.710;100.604;2023-08-17T20:03:40;5.93;;;2.05;;
76094;SDS011;64821;13.710;100.604;2023-08-17T20:04:44;6.65;;;2.33;;
76094;SDS011;64821;13.710;100.604;2023-08-17T20:05:48;6.37;;;2.20;;
76094;SDS011;64821;13.710;100.604;2023-08-17T20:06:51;6.25;;;2.35;;
76094;SDS011;64821;13.710;100.604;2023-08-17T20:07:55;8.02;;;2.20;;
76094;SDS011;64821;13.710;100.604;2023-08-17T20:08:59;7.25;;;2.35;;
76094;SDS011;64821;13.710;100.604;2023-08-17T20:10:03;7.82;;;2.30;;
76094;SDS011;64821;13.710;100.604;2023-08-17T20:11:08;7.70;;;2.10;;
76094;SDS011;64821;13.710;100.604;2023-08-17T20:12:12;6.45;;;2.20;;
76094;SDS011;64821;13.710;100.604;2023-08-17T20:13:15;7.72;;;2.20;;
76094;SDS011;64821;13.710;100.604;2023-08-17T20:14:19;6.93;;;2.30;;
76094;SDS011;64821;13.710;100.604;2023-08-17T20:15:25;5.72;;;2.10;;
76094;SDS011;64821;13.710;100.604;2023-08-17T20:16:29;6.00;;;2.30;;
76094;SDS011;64821;13.710;100.604;2023-08-17T20:17:34;5.97;;;2.30;;
76094;SDS011;64821;13.710;100.604;2023-08-17T20:18:38;8.63;;;2.40;;
76094;SDS011;64821;13.710;100.604;2023-08-17T20:19:42;7.68;;;2.70;;
76094;SDS011;64821;13.710;100.604;2023-08-17T20:20:49;5.95;;;2.20;;
76094;SDS011;64821;13.710;100.604;2023-08-17T20:21:53;8.97;;;3.40;;
76094;SDS011;64821;13.710;100.604;2023-08-17T20:22:57;6.60;;;2.20;;
76094;SDS011;64821;13.710;100.604;2023-08-17T20:24:01;8.10;;;2.88;;
76094;SDS011;64821;13.710;100.604;2023-08-17T20:25:05;7.28;;;2.20;;
76094;SDS011;64821;13.710;100.604;2023-08-17T20:26:09;6.72;;;2.30;;
76094;SDS011;64821;13.710;100.604;2023-08-17T20:27:13;6.97;;;2.47;;
76094;SDS011;64821;13.710;100.604;2023-08-17T20:28:17;7.85;;;2.63;;
76094;SDS011;64821;13.710;100.604;2023-08-17T20:29:20;6.43;;;2.55;;
76094;SDS011;64821;13.710;100.604;2023-08-17T20:30:24;6.55;;;2.38;;
76094;SDS011;64821;13.710;100.604;2023-08-17T20:31:28;6.20;;;2.40;;
76094;SDS011;64821;13.710;100.604;2023-08-17T20:32:32;7.17;;;2.30;;
76094;SDS011;64821;13.710;100.604;2023-08-17T20:33:37;7.78;;;2.67;;
76094;SDS011;64821;13.710;100.604;2023-08-17T20:34:44;7.07;;;2.28;;
76094;SDS011;64821;13.710;100.604;2023-08-17T20:35:49;7.93;;;2.47;;
76094;SDS011;64821;13.710;100.604;2023-08-17T20:36:54;6.57;;;2.40;;
76094;SDS011;64821;13.710;100.604;2023-08-17T20:37:57;7.73;;;2.50;;
76094;SDS011;64821;13.710;100.604;2023-08-17T20:39:05;6.75;;;2.40;;
76094;SDS011;64821;13.710;100.604;2023-08-17T20:40:09;8.57;;;2.50;;
76094;SDS011;64821;13.710;100.604;2023-08-17T20:41:13;6.85;;;2.33;;
76094;SDS011;64821;13.710;100.604;2023-08-17T20:42:17;7.00;;;2.67;;
76094;SDS011;64821;13.710;100.604;2023-08-17T20:43:22;6.43;;;2.37;;
76094;SDS011;64821;13.710;100.604;2023-08-17T20:44:26;6.32;;;2.30;;
76094;SDS011;64821;13.710;100.604;2023-08-17T20:45:29;6.35;;;2.17;;
76094;SDS011;64821;13.710;100.604;2023-08-17T20:46:33;8.50;;;2.58;;
76094;SDS011;64821;13.710;100.604;2023-08-17T20:47:39;7.22;;;2.70;;
76094;SDS011;64821;13.710;100.604;2023-08-17T20:48:42;7.47;;;2.70;;
76094;SDS011;64821;13.710;100.604;2023-08-17T20:49:46;6.57;;;2.30;;
76094;SDS011;64821;13.710;100.604;2023-08-17T20:50:50;6.93;;;2.30;;
76094;SDS011;64821;13.710;100.604;2023-08-17T20:51:53;7.45;;;2.47;;
76094;SDS011;64821;13.710;100.604;2023-08-17T20:52:57;7.55;;;2.53;;
76094;SDS011;64821;13.710;100.604;2023-08-17T20:54:01;6.30;;;2.60;;
76094;SDS011;64821;13.710;100.604;2023-08-17T20:55:05;6.10;;;2.30;;
76094;SDS011;64821;13.710;100.604;2023-08-17T20:56:09;7.65;;;2.53;;
76094;SDS011;64821;13.710;100.604;2023-08-17T20:57:13;7.63;;;2.63;;
76094;SDS011;64821;13.710;100.604;2023-08-17T20:58:16;6.47;;;2.33;;
76094;SDS011;64821;13.710;100.604;2023-08-17T20:59:20;7.47;;;2.33;;
76094;SDS011;64821;13.710;100.604;2023-08-17T21:00:24;8.43;;;2.45;;
76094;SDS011;64821;13.710;100.604;2023-08-17T21:01:27;7.65;;;2.42;;
76094;SDS011;64821;13.710;100.604;2023-08-17T21:02:31;7.07;;;2.40;;
76094;SDS011;64821;13.710;100.604;2023-08-17T21:03:37;6.88;;;2.35;;
76094;SDS011;64821;13.710;100.604;2023-08-17T21:04:40;6.80;;;2.30;;
76094;SDS011;64821;13.710;100.604;2023-08-17T21:05:44;6.13;;;2.47;;
76094;SDS011;64821;13.710;100.604;2023-08-17T21:06:48;6.78;;;2.63;;
76094;SDS011;64821;13.710;100.604;2023-08-17T21:07:52;7.65;;;2.40;;
76094;SDS011;64821;13.710;100.604;2023-08-17T21:08:55;7.20;;;2.70;;
76094;SDS011;64821;13.710;100.604;2023-08-17T21:09:59;6.47;;;2.53;;
76094;SDS011;64821;13.710;100.604;2023-08-17T21:11:03;7.05;;;2.40;;
76094;SDS011;64821;13.710;100.604;2023-08-17T21:12:07;8.02;;;2.47;;
76094;SDS011;64821;13.710;100.604;2023-08-17T21:13:10;7.57;;;2.78;;
76094;SDS011;64821;13.710;100.604;2023-08-17T21:14:14;7.72;;;2.50;;
76094;SDS011;64821;13.710;100.604;2023-08-17T21:15:18;5.80;;;2.20;;
76094;SDS011;64821;13.710;100.604;2023-08-17T21:16:22;7.55;;;2.40;;
76094;SDS011;64821;13.710;100.604;2023-08-17T21:17:25;6.47;;;2.50;;
76094;SDS011;64821;13.710;100.604;2023-08-17T21:18:30;8.15;;;2.40;;
76094;SDS011;64821;13.710;100.604;2023-08-17T21:19:35;6.32;;;2.50;;
76094;SDS011;64821;13.710;100.604;2023-08-17T21:20:39;6.73;;;2.33;;
76094;SDS011;64821;13.710;100.604;2023-08-17T21:21:43;6.82;;;2.50;;
76094;SDS011;64821;13.710;100.604;2023-08-17T21:22:47;6.15;;;2.15;;
76094;SDS011;64821;13.710;100.604;2023-08-17T21:23:51;6.15;;;2.55;;
76094;SDS011;64821;13.710;100.604;2023-08-17T21:24:55;6.63;;;2.30;;
76094;SDS011;64821;13.710;100.604;2023-08-17T21:25:59;7.20;;;2.17;;
76094;SDS011;64821;13.710;100.604;2023-08-17T21:27:03;7.43;;;3.00;;
76094;SDS011;64821;13.710;100.604;2023-08-17T21:28:06;6.88;;;2.35;;
76094;SDS011;64821;13.710;100.604;2023-08-17T21:29:10;6.75;;;2.78;;
76094;SDS011;64821;13.710;100.604;2023-08-17T21:30:14;6.45;;;2.40;;
76094;SDS011;64821;13.710;100.604;2023-08-17T21:31:18;6.10;;;2.37;;
76094;SDS011;64821;13.710;100.604;2023-08-17T21:32:22;6.53;;;2.47;;
76094;SDS011;64821;13.710;100.604;2023-08-17T21:33:25;6.65;;;2.60;;
76094;SDS011;64821;13.710;100.604;2023-08-17T21:34:29;6.45;;;2.45;;
76094;SDS011;64821;13.710;100.604;2023-08-17T21:35:35;6.78;;;2.53;;
76094;SDS011;64821;13.710;100.604;2023-08-17T21:36:38;7.40;;;2.50;;
76094;SDS011;64821;13.710;100.604;2023-08-17T21:37:43;6.35;;;2.60;;
76094;SDS011;64821;13.710;100.604;2023-08-17T21:38:47;6.30;;;2.50;;
76094;SDS011;64821;13.710;100.604;2023-08-17T21:39:51;6.97;;;2.83;;
76094;SDS011;64821;13.710;100.604;2023-08-17T21:40:56;6.82;;;2.55;;
76094;SDS011;64821;13.710;100.604;2023-08-17T21:41:59;7.10;;;2.47;;
76094;SDS011;64821;13.710;100.604;2023-08-17T21:43:03;6.20;;;2.50;;
76094;SDS011;64821;13.710;100.604;2023-08-17T21:44:07;5.75;;;2.60;;
76094;SDS011;64821;13.710;100.604;2023-08-17T21:45:11;5.85;;;2.30;;
76094;SDS011;64821;13.710;100.604;2023-08-17T21:46:15;7.40;;;2.80;;
76094;SDS011;64821;13.710;100.604;2023-08-17T21:47:18;7.57;;;2.80;;
76094;SDS011;64821;13.710;100.604;2023-08-17T21:48:22;6.53;;;2.45;;
76094;SDS011;64821;13.710;100.604;2023-08-17T21:49:26;6.45;;;2.50;;
76094;SDS011;64821;13.710;100.604;2023-08-17T21:50:30;8.27;;;2.83;;
76094;SDS011;64821;13.710;100.604;2023-08-17T21:51:35;7.35;;;2.70;;
76094;SDS011;64821;13.710;100.604;2023-08-17T21:52:39;6.30;;;2.37;;
76094;SDS011;64821;13.710;100.604;2023-08-17T21:53:42;6.60;;;2.42;;
76094;SDS011;64821;13.710;100.604;2023-08-17T21:54:48;6.63;;;2.40;;
76094;SDS011;64821;13.710;100.604;2023-08-17T21:55:52;6.63;;;2.50;;
76094;SDS011;64821;13.710;100.604;2023-08-17T21:56:55;6.80;;;2.55;;
76094;SDS011;64821;13.710;100.604;2023-08-17T21:57:59;7.43;;;2.30;;
76094;SDS011;64821;13.710;100.604;2023-08-17T21:59:03;7.50;;;2.20;;
76094;SDS011;64821;13.710;100.604;2023-08-17T22:00:07;7.82;;;2.35;;
76094;SDS011;64821;13.710;100.604;2023-08-17T22:01:11;7.18;;;2.55;;
76094;SDS011;64821;13.710;100.604;2023-08-17T22:02:16;7.68;;;2.80;;
76094;SDS011;64821;13.710;100.604;2023-08-17T22:03:20;6.53;;;2.00;;
76094;SDS011;64821;13.710;100.604;2023-08-17T22:04:24;5.90;;;2.35;;
76094;SDS011;64821;13.710;100.604;2023-08-17T22:05:28;6.38;;;2.30;;
76094;SDS011;64821;13.710;100.604;2023-08-17T22:06:31;6.95;;;2.30;;
76094;SDS011;64821;13.710;100.604;2023-08-17T22:07:37;6.38;;;2.28;;
76094;SDS011;64821;13.710;100.604;2023-08-17T22:08:40;5.93;;;2.27;;
76094;SDS011;64821;13.710;100.604;2023-08-17T22:09:44;6.50;;;2.55;;
76094;SDS011;64821;13.710;100.604;2023-08-17T22:10:48;7.25;;;2.40;;
76094;SDS011;64821;13.710;100.604;2023-08-17T22:11:52;7.85;;;2.42;;
76094;SDS011;64821;13.710;100.604;2023-08-17T22:12:55;6.63;;;2.13;;
76094;SDS011;64821;13.710;100.604;2023-08-17T22:14:00;6.87;;;2.10;;
76094;SDS011;64821;13.710;100.604;2023-08-17T22:15:04;7.10;;;2.35;;
76094;SDS011;64821;13.710;100.604;2023-08-17T22:16:08;7.55;;;2.40;;
76094;SDS011;64821;13.710;100.604;2023-08-17T22:17:12;6.32;;;2.22;;
76094;SDS011;64821;13.710;100.604;2023-08-17T22:18:16;6.55;;;2.17;;
76094;SDS011;64821;13.710;100.604;2023-08-17T22:19:19;6.87;;;2.40;;
76094;SDS011;64821;13.710;100.604;2023-08-17T22:20:23;7.53;;;2.30;;
76094;SDS011;64821;13.710;100.604;2023-08-17T22:21:27;6.88;;;2.17;;
76094;SDS011;64821;13.710;100.604;2023-08-17T22:22:31;6.28;;;2.13;;
76094;SDS011;64821;13.710;100.604;2023-08-17T22:23:36;8.25;;;2.38;;
76094;SDS011;64821;13.710;100.604;2023-08-17T22:24:40;5.80;;;2.20;;
76094;SDS011;64821;13.710;100.604;2023-08-17T22:25:52;5.82;;;2.20;;
76094;SDS011;64821;13.710;100.604;2023-08-17T22:26:56;6.00;;;2.00;;
76094;SDS011;64821;13.710;100.604;2023-08-17T22:28:00;6.85;;;2.10;;
76094;SDS011;64821;13.710;100.604;2023-08-17T22:29:04;8.18;;;2.20;;
76094;SDS011;64821;13.710;100.604;2023-08-17T22:30:09;6.77;;;2.40;;
76094;SDS011;64821;13.710;100.604;2023-08-17T22:31:13;5.60;;;2.10;;
76094;SDS011;64821;13.710;100.604;2023-08-17T22:32:17;7.47;;;2.50;;
76094;SDS011;64821;13.710;100.604;2023-08-17T22:33:21;7.20;;;2.40;;
76094;SDS011;64821;13.710;100.604;2023-08-17T22:34:24;6.40;;;2.30;;
76094;SDS011;64821;13.710;100.604;2023-08-17T22:35:28;6.60;;;2.50;;
76094;SDS011;64821;13.710;100.604;2023-08-17T22:36:32;6.38;;;2.40;;
76094;SDS011;64821;13.710;100.604;2023-08-17T22:37:36;6.20;;;2.40;;
76094;SDS011;64821;13.710;100.604;2023-08-17T22:38:41;6.18;;;2.40;;
76094;SDS011;64821;13.710;100.604;2023-08-17T22:39:45;7.13;;;2.80;;
76094;SDS011;64821;13.710;100.604;2023-08-17T22:40:48;7.33;;;2.60;;
76094;SDS011;64821;13.710;100.604;2023-08-17T22:41:52;6.13;;;2.65;;
76094;SDS011;64821;13.710;100.604;2023-08-17T22:42:56;6.97;;;2.72;;
76094;SDS011;64821;13.710;100.604;2023-08-17T22:44:00;8.18;;;2.83;;
76094;SDS011;64821;13.710;100.604;2023-08-17T22:45:04;6.82;;;2.67;;
76094;SDS011;64821;13.710;100.604;2023-08-17T22:46:08;7.17;;;2.77;;
76094;SDS011;64821;13.710;100.604;2023-08-17T22:47:12;7.20;;;3.03;;
76094;SDS011;64821;13.710;100.604;2023-08-17T22:48:16;8.80;;;2.78;;
76094;SDS011;64821;13.710;100.604;2023-08-17T22:49:19;6.20;;;2.60;;
76094;SDS011;64821;13.710;100.604;2023-08-17T22:50:23;8.82;;;3.10;;
76094;SDS011;64821;13.710;100.604;2023-08-17T22:51:27;7.57;;;2.80;;
76094;SDS011;64821;13.710;100.604;2023-08-17T22:52:30;6.70;;;3.03;;
76094;SDS011;64821;13.710;100.604;2023-08-17T22:53:34;6.95;;;2.90;;
76094;SDS011;64821;13.710;100.604;2023-08-17T22:54:40;7.45;;;3.05;;
76094;SDS011;64821;13.710;100.604;2023-08-17T22:55:44;6.25;;;2.65;;
76094;SDS011;64821;13.710;100.604;2023-08-17T22:56:47;7.93;;;3.20;;
76094;SDS011;64821;13.710;100.604;2023-08-17T22:57:51;7.47;;;3.20;;
76094;SDS011;64821;13.710;100.604;2023-08-17T22:58:55;6.47;;;2.55;;
76094;SDS011;64821;13.710;100.604;2023-08-17T22:59:59;8.68;;;3.38;;
76094;SDS011;64821;13.710;100.604;2023-08-17T23:01:02;8.98;;;3.50;;
76094;SDS011;64821;13.710;100.604;2023-08-17T23:02:06;7.27;;;3.00;;
76094;SDS011;64821;13.710;100.604;2023-08-17T23:03:10;9.25;;;3.10;;
76094;SDS011;64821;13.710;100.604;2023-08-17T23:04:14;8.50;;;3.50;;
76094;SDS011;64821;13.710;100.604;2023-08-17T23:05:17;7.07;;;3.00;;
76094;SDS011;64821;13.710;100.604;2023-08-17T23:06:22;8.98;;;3.35;;
76094;SDS011;64821;13.710;100.604;2023-08-17T23:07:25;7.30;;;2.93;;
76094;SDS011;64821;13.710;100.604;2023-08-17T23:08:29;8.90;;;3.70;;
76094;SDS011;64821;13.710;100.604;2023-08-17T23:09:33;8.77;;;3.53;;
76094;SDS011;64821;13.710;100.604;2023-08-17T23:10:38;9.15;;;3.25;;
76094;SDS011;64821;13.710;100.604;2023-08-17T23:11:42;9.07;;;3.50;;
76094;SDS011;64821;13.710;100.604;2023-08-17T23:12:46;7.90;;;3.33;;
76094;SDS011;64821;13.710;100.604;2023-08-17T23:13:49;8.48;;;3.33;;
76094;SDS011;64821;13.710;100.604;2023-08-17T23:14:53;9.23;;;3.58;;
76094;SDS011;64821;13.710;100.604;2023-08-17T23:15:57;9.48;;;3.50;;
76094;SDS011;64821;13.710;100.604;2023-08-17T23:17:01;7.70;;;3.30;;
76094;SDS011;64821;13.710;100.604;2023-08-17T23:18:04;8.40;;;3.17;;
76094;SDS011;64821;13.710;100.604;2023-08-17T23:19:08;7.97;;;3.58;;
76094;SDS011;64821;13.710;100.604;2023-08-17T23:20:12;8.70;;;3.70;;
76094;SDS011;64821;13.710;100.604;2023-08-17T23:21:16;9.25;;;3.53;;
76094;SDS011;64821;13.710;100.604;2023-08-17T23:22:19;7.72;;;3.35;;
76094;SDS011;64821;13.710;100.604;2023-08-17T23:23:23;8.60;;;4.00;;
76094;SDS011;64821;13.710;100.604;2023-08-17T23:24:27;8.13;;;3.35;;
76094;SDS011;64821;13.710;100.604;2023-08-17T23:25:31;8.68;;;3.75;;
76094;SDS011;64821;13.710;100.604;2023-08-17T23:26:37;8.85;;;3.72;;
76094;SDS011;64821;13.710;100.604;2023-08-17T23:27:40;8.73;;;3.92;;
76094;SDS011;64821;13.710;100.604;2023-08-17T23:28:44;8.83;;;4.07;;
76094;SDS011;64821;13.710;100.604;2023-08-17T23:29:48;7.63;;;4.00;;
76094;SDS011;64821;13.710;100.604;2023-08-17T23:30:52;9.75;;;3.78;;
76094;SDS011;64821;13.710;100.604;2023-08-17T23:31:59;8.25;;;3.80;;
76094;SDS011;64821;13.710;100.604;2023-08-17T23:33:21;7.50;;;3.80;;
76094;SDS011;64821;13.710;100.604;2023-08-17T23:34:25;8.87;;;3.50;;
76094;SDS011;64821;13.710;100.604;2023-08-17T23:35:29;8.88;;;3.80;;
76094;SDS011;64821;13.710;100.604;2023-08-17T23:36:32;7.78;;;3.53;;
76094;SDS011;64821;13.710;100.604;2023-08-17T23:37:36;8.50;;;3.40;;
76094;SDS011;64821;13.710;100.604;2023-08-17T23:38:40;7.93;;;3.20;;
76094;SDS011;64821;13.710;100.604;2023-08-17T23:39:44;8.60;;;3.67;;
76094;SDS011;64821;13.710;100.604;2023-08-17T23:40:47;7.93;;;3.30;;
76094;SDS011;64821;13.710;100.604;2023-08-17T23:41:56;9.50;;;3.67;;
76094;SDS011;64821;13.710;100.604;2023-08-17T23:42:59;8.57;;;3.63;;
76094;SDS011;64821;13.710;100.604;2023-08-17T23:44:03;8.95;;;3.05;;
76094;SDS011;64821;13.710;100.604;2023-08-17T23:45:08;7.40;;;3.20;;
76094;SDS011;64821;13.710;100.604;2023-08-17T23:46:12;8.95;;;3.50;;
76094;SDS011;64821;13.710;100.604;2023-08-17T23:47:15;8.60;;;3.90;;
76094;SDS011;64821;13.710;100.604;2023-08-17T23:48:19;7.07;;;2.92;;
76094;SDS011;64821;13.710;100.604;2023-08-17T23:49:23;7.53;;;2.90;;
76094;SDS011;64821;13.710;100.604;2023-08-17T23:50:27;7.47;;;3.23;;
76094;SDS011;64821;13.710;100.604;2023-08-17T23:51:30;9.00;;;3.47;;
76094;SDS011;64821;13.710;100.604;2023-08-17T23:52:34;7.32;;;3.10;;
76094;SDS011;64821;13.710;100.604;2023-08-17T23:53:38;8.32;;;3.13;;
76094;SDS011;64821;13.710;100.604;2023-08-17T23:54:42;7.60;;;3.47;;
76094;SDS011;64821;13.710;100.604;2023-08-17T23:55:46;8.13;;;2.93;;
76094;SDS011;64821;13.710;100.604;2023-08-17T23:56:49;7.30;;;2.70;;
76094;SDS011;64821;13.710;100.604;2023-08-17T23:57:55;7.75;;;3.05;;
76094;SDS011;64821;13.710;100.604;2023-08-17T23:58:59;7.65;;;2.92;;
